Jud, North Dakota
Current Conditions -  °F | °C
As of 5:56 AM on Wednesday 28 Jan 2015 (Local Time) from KJMS Reporting Station
Moderate Fog Moderate Fog  
Wind Chill: 24°   Ceiling: 200
Heat Index: 31°   Visibility: 0.25mi
Dew Point: 30°   Wind: 7mph
Humidity: 96%   Direction: 170°S
Pressure: 29.73"   Gusts: NA
Location:  46.53°N, 98.9°W
Report Text: KJMS 281156Z AUTO 17006KT 1/4SM FZFG VV002 M01/M01 A2973 RMK AO2 SLP085 I1001 I6002 T10061011 10006 21006 56008
Loading
Personal Weather Stations






























Interactive Weather Map New forecast layout! Learn more

10-Day Weather Forecast

Advertisements
Track Severe Weather on mobile